sensor_id;sensor_type;location;lat;lon;timestamp;P1;durP1;ratioP1;P2;durP2;ratioP2
20203;SDS011;10261;49.010;12.034;2023-02-19T00:00:13;2.10;;;1.90;;
20203;SDS011;10261;49.010;12.034;2023-02-19T00:01:17;1.73;;;1.63;;
20203;SDS011;10261;49.010;12.034;2023-02-19T00:02:22;2.95;;;1.98;;
20203;SDS011;10261;49.010;12.034;2023-02-19T00:03:25;2.70;;;2.42;;
20203;SDS011;10261;49.010;12.034;2023-02-19T00:04:27;2.42;;;2.17;;
20203;SDS011;10261;49.010;12.034;2023-02-19T00:05:30;2.30;;;1.80;;
20203;SDS011;10261;49.010;12.034;2023-02-19T00:06:32;2.70;;;1.48;;
20203;SDS011;10261;49.010;12.034;2023-02-19T00:07:36;1.98;;;1.77;;
20203;SDS011;10261;49.010;12.034;2023-02-19T00:08:38;2.13;;;1.92;;
20203;SDS011;10261;49.010;12.034;2023-02-19T00:09:41;2.03;;;1.83;;
20203;SDS011;10261;49.010;12.034;2023-02-19T00:10:43;3.97;;;2.05;;
20203;SDS011;10261;49.010;12.034;2023-02-19T00:11:48;2.28;;;1.83;;
20203;SDS011;10261;49.010;12.034;2023-02-19T00:12:51;1.88;;;1.38;;
20203;SDS011;10261;49.010;12.034;2023-02-19T00:13:53;2.22;;;1.50;;
20203;SDS011;10261;49.010;12.034;2023-02-19T00:14:57;2.00;;;1.85;;
20203;SDS011;10261;49.010;12.034;2023-02-19T00:16:04;2.45;;;1.67;;
20203;SDS011;10261;49.010;12.034;2023-02-19T00:17:07;1.75;;;1.60;;
20203;SDS011;10261;49.010;12.034;2023-02-19T00:18:10;1.55;;;1.45;;
20203;SDS011;10261;49.010;12.034;2023-02-19T00:19:12;2.20;;;1.60;;
20203;SDS011;10261;49.010;12.034;2023-02-19T00:20:17;2.47;;;1.38;;
20203;SDS011;10261;49.010;12.034;2023-02-19T00:21:19;1.90;;;1.77;;
20203;SDS011;10261;49.010;12.034;2023-02-19T00:22:22;2.13;;;1.92;;
20203;SDS011;10261;49.010;12.034;2023-02-19T00:23:24;1.55;;;1.45;;
20203;SDS011;10261;49.010;12.034;2023-02-19T00:24:28;1.50;;;1.40;;
20203;SDS011;10261;49.010;12.034;2023-02-19T00:25:30;1.50;;;1.40;;
20203;SDS011;10261;49.010;12.034;2023-02-19T00:26:33;1.90;;;1.70;;
20203;SDS011;10261;49.010;12.034;2023-02-19T00:27:37;1.95;;;1.50;;
20203;SDS011;10261;49.010;12.034;2023-02-19T00:28:40;1.70;;;1.60;;
20203;SDS011;10261;49.010;12.034;2023-02-19T00:29:42;2.35;;;1.67;;
20203;SDS011;10261;49.010;12.034;2023-02-19T00:30:44;1.45;;;1.17;;
20203;SDS011;10261;49.010;12.034;2023-02-19T00:31:47;4.10;;;1.40;;
20203;SDS011;10261;49.010;12.034;2023-02-19T00:32:50;1.77;;;1.45;;
20203;SDS011;10261;49.010;12.034;2023-02-19T00:33:52;2.20;;;1.90;;
20203;SDS011;10261;49.010;12.034;2023-02-19T00:34:56;2.35;;;1.23;;
20203;SDS011;10261;49.010;12.034;2023-02-19T00:35:59;1.90;;;1.45;;
20203;SDS011;10261;49.010;12.034;2023-02-19T00:37:01;1.90;;;1.67;;
20203;SDS011;10261;49.010;12.034;2023-02-19T00:38:04;5.05;;;1.27;;
20203;SDS011;10261;49.010;12.034;2023-02-19T00:39:07;2.13;;;1.92;;
20203;SDS011;10261;49.010;12.034;2023-02-19T00:40:13;1.38;;;1.20;;
20203;SDS011;10261;49.010;12.034;2023-02-19T00:41:15;2.28;;;1.88;;
20203;SDS011;10261;49.010;12.034;2023-02-19T00:42:21;3.75;;;1.48;;
20203;SDS011;10261;49.010;12.034;2023-02-19T00:43:25;1.55;;;1.45;;
20203;SDS011;10261;49.010;12.034;2023-02-19T00:44:28;2.10;;;1.95;;
20203;SDS011;10261;49.010;12.034;2023-02-19T00:45:31;1.63;;;1.30;;
20203;SDS011;10261;49.010;12.034;2023-02-19T00:46:35;1.67;;;1.25;;
20203;SDS011;10261;49.010;12.034;2023-02-19T00:47:39;1.65;;;1.10;;
20203;SDS011;10261;49.010;12.034;2023-02-19T00:48:41;2.10;;;1.27;;
20203;SDS011;10261;49.010;12.034;2023-02-19T00:49:45;1.15;;;0.98;;
20203;SDS011;10261;49.010;12.034;2023-02-19T00:50:47;1.45;;;1.30;;
20203;SDS011;10261;49.010;12.034;2023-02-19T00:51:50;1.00;;;0.85;;
20203;SDS011;10261;49.010;12.034;2023-02-19T00:52:53;1.38;;;1.05;;
20203;SDS011;10261;49.010;12.034;2023-02-19T00:53:56;2.00;;;0.88;;
20203;SDS011;10261;49.010;12.034;2023-02-19T00:54:59;1.10;;;1.00;;
20203;SDS011;10261;49.010;12.034;2023-02-19T00:56:01;1.00;;;0.80;;
20203;SDS011;10261;49.010;12.034;2023-02-19T00:57:04;1.25;;;1.08;;
20203;SDS011;10261;49.010;12.034;2023-02-19T00:58:07;1.20;;;1.10;;
20203;SDS011;10261;49.010;12.034;2023-02-19T00:59:10;1.30;;;0.98;;
20203;SDS011;10261;49.010;12.034;2023-02-19T01:00:14;1.52;;;1.27;;
20203;SDS011;10261;49.010;12.034;2023-02-19T01:01:16;1.30;;;1.10;;
20203;SDS011;10261;49.010;12.034;2023-02-19T01:02:20;1.20;;;1.10;;
20203;SDS011;10261;49.010;12.034;2023-02-19T01:03:22;1.13;;;0.82;;
20203;SDS011;10261;49.010;12.034;2023-02-19T01:04:26;1.55;;;1.00;;
20203;SDS011;10261;49.010;12.034;2023-02-19T01:05:29;1.25;;;0.82;;
20203;SDS011;10261;49.010;12.034;2023-02-19T01:06:31;1.10;;;0.90;;
20203;SDS011;10261;49.010;12.034;2023-02-19T01:07:34;1.00;;;0.80;;
20203;SDS011;10261;49.010;12.034;2023-02-19T01:08:36;1.15;;;1.00;;
20203;SDS011;10261;49.010;12.034;2023-02-19T01:09:40;1.17;;;1.00;;
20203;SDS011;10261;49.010;12.034;2023-02-19T01:10:42;0.90;;;0.70;;
20203;SDS011;10261;49.010;12.034;2023-02-19T01:11:45;0.90;;;0.73;;
20203;SDS011;10261;49.010;12.034;2023-02-19T01:12:47;0.77;;;0.60;;
20203;SDS011;10261;49.010;12.034;2023-02-19T01:13:51;0.77;;;0.60;;
20203;SDS011;10261;49.010;12.034;2023-02-19T01:14:58;1.10;;;0.93;;
20203;SDS011;10261;49.010;12.034;2023-02-19T01:16:01;1.10;;;0.85;;
20203;SDS011;10261;49.010;12.034;2023-02-19T01:17:04;1.00;;;0.70;;
20203;SDS011;10261;49.010;12.034;2023-02-19T01:18:07;0.90;;;0.80;;
20203;SDS011;10261;49.010;12.034;2023-02-19T01:19:08;0.98;;;0.80;;
20203;SDS011;10261;49.010;12.034;2023-02-19T01:20:12;0.80;;;0.70;;
20203;SDS011;10261;49.010;12.034;2023-02-19T01:21:14;0.80;;;0.60;;
20203;SDS011;10261;49.010;12.034;2023-02-19T01:22:18;1.23;;;1.00;;
20203;SDS011;10261;49.010;12.034;2023-02-19T01:23:20;1.65;;;0.95;;
20203;SDS011;10261;49.010;12.034;2023-02-19T01:24:23;0.80;;;0.60;;
20203;SDS011;10261;49.010;12.034;2023-02-19T01:25:26;1.38;;;0.77;;
20203;SDS011;10261;49.010;12.034;2023-02-19T01:26:29;0.80;;;0.80;;
20203;SDS011;10261;49.010;12.034;2023-02-19T01:27:33;0.65;;;0.55;;
20203;SDS011;10261;49.010;12.034;2023-02-19T01:28:35;0.90;;;0.73;;
20203;SDS011;10261;49.010;12.034;2023-02-19T01:29:38;0.80;;;0.52;;
20203;SDS011;10261;49.010;12.034;2023-02-19T01:30:41;0.70;;;0.50;;
20203;SDS011;10261;49.010;12.034;2023-02-19T01:31:44;0.60;;;0.50;;
20203;SDS011;10261;49.010;12.034;2023-02-19T01:32:46;0.60;;;0.50;;
20203;SDS011;10261;49.010;12.034;2023-02-19T01:33:50;0.60;;;0.47;;
20203;SDS011;10261;49.010;12.034;2023-02-19T01:34:53;0.80;;;0.70;;
20203;SDS011;10261;49.010;12.034;2023-02-19T01:35:56;0.70;;;0.50;;
20203;SDS011;10261;49.010;12.034;2023-02-19T01:36:58;0.75;;;0.45;;
20203;SDS011;10261;49.010;12.034;2023-02-19T01:38:01;0.95;;;0.50;;
20203;SDS011;10261;49.010;12.034;2023-02-19T01:39:04;0.70;;;0.50;;
20203;SDS011;10261;49.010;12.034;2023-02-19T01:40:08;1.27;;;1.17;;
20203;SDS011;10261;49.010;12.034;2023-02-19T01:41:11;1.90;;;0.50;;
20203;SDS011;10261;49.010;12.034;2023-02-19T01:42:15;0.60;;;0.40;;
20203;SDS011;10261;49.010;12.034;2023-02-19T01:43:18;1.50;;;0.32;;
20203;SDS011;10261;49.010;12.034;2023-02-19T01:46:02;0.60;;;0.40;;
20203;SDS011;10261;49.010;12.034;2023-02-19T01:47:04;0.70;;;0.50;;
20203;SDS011;10261;49.010;12.034;2023-02-19T01:48:08;0.80;;;0.40;;
20203;SDS011;10261;49.010;12.034;2023-02-19T01:49:13;0.70;;;0.40;;
20203;SDS011;10261;49.010;12.034;2023-02-19T01:50:20;0.52;;;0.43;;
20203;SDS011;10261;49.010;12.034;2023-02-19T01:51:23;2.95;;;0.60;;
20203;SDS011;10261;49.010;12.034;2023-02-19T01:52:27;1.00;;;0.60;;
20203;SDS011;10261;49.010;12.034;2023-02-19T01:53:33;0.63;;;0.40;;
20203;SDS011;10261;49.010;12.034;2023-02-19T01:54:40;0.68;;;0.50;;
20203;SDS011;10261;49.010;12.034;2023-02-19T01:55:44;1.67;;;0.50;;
20203;SDS011;10261;49.010;12.034;2023-02-19T01:56:49;0.85;;;0.40;;
20203;SDS011;10261;49.010;12.034;2023-02-19T01:57:52;0.70;;;0.65;;
20203;SDS011;10261;49.010;12.034;2023-02-19T01:58:57;0.60;;;0.50;;
20203;SDS011;10261;49.010;12.034;2023-02-19T02:00:01;0.60;;;0.45;;
20203;SDS011;10261;49.010;12.034;2023-02-19T02:01:09;0.60;;;0.40;;
20203;SDS011;10261;49.010;12.034;2023-02-19T02:02:11;1.38;;;0.50;;
20203;SDS011;10261;49.010;12.034;2023-02-19T02:03:14;0.60;;;0.40;;
20203;SDS011;10261;49.010;12.034;2023-02-19T02:04:17;1.35;;;0.95;;
20203;SDS011;10261;49.010;12.034;2023-02-19T02:05:23;0.68;;;0.52;;
20203;SDS011;10261;49.010;12.034;2023-02-19T02:06:33;1.30;;;0.50;;
20203;SDS011;10261;49.010;12.034;2023-02-19T02:07:40;0.60;;;0.32;;
20203;SDS011;10261;49.010;12.034;2023-02-19T02:09:01;1.10;;;0.60;;
20203;SDS011;10261;49.010;12.034;2023-02-19T02:10:18;0.70;;;0.50;;
20203;SDS011;10261;49.010;12.034;2023-02-19T02:11:20;0.50;;;0.40;;
20203;SDS011;10261;49.010;12.034;2023-02-19T02:12:23;0.70;;;0.50;;
20203;SDS011;10261;49.010;12.034;2023-02-19T02:13:25;0.95;;;0.60;;
20203;SDS011;10261;49.010;12.034;2023-02-19T02:14:29;0.60;;;0.40;;
20203;SDS011;10261;49.010;12.034;2023-02-19T02:15:35;0.50;;;0.40;;
20203;SDS011;10261;49.010;12.034;2023-02-19T02:16:48;0.70;;;0.40;;
20203;SDS011;10261;49.010;12.034;2023-02-19T02:17:55;0.65;;;0.50;;
20203;SDS011;10261;49.010;12.034;2023-02-19T02:19:04;1.50;;;0.60;;
20203;SDS011;10261;49.010;12.034;2023-02-19T02:20:26;0.75;;;0.60;;
20203;SDS011;10261;49.010;12.034;2023-02-19T02:21:52;0.60;;;0.40;;
20203;SDS011;10261;49.010;12.034;2023-02-19T02:23:10;1.30;;;0.50;;
20203;SDS011;10261;49.010;12.034;2023-02-19T02:24:24;0.70;;;0.40;;
20203;SDS011;10261;49.010;12.034;2023-02-19T02:26:05;0.77;;;0.60;;
20203;SDS011;10261;49.010;12.034;2023-02-19T02:28:47;2.45;;;0.50;;
20203;SDS011;10261;49.010;12.034;2023-02-19T02:30:17;2.15;;;0.52;;
20203;SDS011;10261;49.010;12.034;2023-02-19T02:31:27;0.63;;;0.45;;
20203;SDS011;10261;49.010;12.034;2023-02-19T02:32:34;1.00;;;0.60;;
20203;SDS011;10261;49.010;12.034;2023-02-19T02:33:45;0.70;;;0.50;;
20203;SDS011;10261;49.010;12.034;2023-02-19T02:34:54;1.20;;;0.55;;
20203;SDS011;10261;49.010;12.034;2023-02-19T02:36:02;1.30;;;1.10;;
20203;SDS011;10261;49.010;12.034;2023-02-19T02:37:07;1.15;;;0.55;;
20203;SDS011;10261;49.010;12.034;2023-02-19T02:38:12;0.75;;;0.52;;
20203;SDS011;10261;49.010;12.034;2023-02-19T02:39:16;1.48;;;0.60;;
20203;SDS011;10261;49.010;12.034;2023-02-19T02:40:22;0.60;;;0.43;;
20203;SDS011;10261;49.010;12.034;2023-02-19T02:41:24;0.70;;;0.50;;
20203;SDS011;10261;49.010;12.034;2023-02-19T02:42:27;0.65;;;0.50;;
20203;SDS011;10261;49.010;12.034;2023-02-19T02:43:29;0.77;;;0.60;;
20203;SDS011;10261;49.010;12.034;2023-02-19T02:44:33;0.85;;;0.60;;
20203;SDS011;10261;49.010;12.034;2023-02-19T02:45:37;1.20;;;0.82;;
20203;SDS011;10261;49.010;12.034;2023-02-19T02:46:40;0.70;;;0.50;;
20203;SDS011;10261;49.010;12.034;2023-02-19T02:47:46;0.85;;;0.50;;
20203;SDS011;10261;49.010;12.034;2023-02-19T02:48:53;0.70;;;0.55;;
20203;SDS011;10261;49.010;12.034;2023-02-19T02:49:59;0.90;;;0.52;;
20203;SDS011;10261;49.010;12.034;2023-02-19T02:51:09;1.45;;;0.60;;
20203;SDS011;10261;49.010;12.034;2023-02-19T02:52:17;1.65;;;0.50;;
20203;SDS011;10261;49.010;12.034;2023-02-19T02:53:34;0.60;;;0.40;;
20203;SDS011;10261;49.010;12.034;2023-02-19T02:54:58;0.82;;;0.63;;
20203;SDS011;10261;49.010;12.034;2023-02-19T02:56:05;1.25;;;0.60;;
20203;SDS011;10261;49.010;12.034;2023-02-19T02:57:11;2.15;;;0.70;;
20203;SDS011;10261;49.010;12.034;2023-02-19T02:58:16;0.80;;;0.50;;
20203;SDS011;10261;49.010;12.034;2023-02-19T02:59:20;0.70;;;0.50;;
20203;SDS011;10261;49.010;12.034;2023-02-19T03:00:25;0.80;;;0.70;;
20203;SDS011;10261;49.010;12.034;2023-02-19T03:01:53;0.60;;;0.57;;
20203;SDS011;10261;49.010;12.034;2023-02-19T03:03:14;0.70;;;0.57;;
20203;SDS011;10261;49.010;12.034;2023-02-19T03:04:22;1.13;;;0.60;;
20203;SDS011;10261;49.010;12.034;2023-02-19T03:05:28;1.30;;;0.90;;
20203;SDS011;10261;49.010;12.034;2023-02-19T03:06:48;1.73;;;0.60;;
20203;SDS011;10261;49.010;12.034;2023-02-19T03:07:53;1.00;;;0.60;;
20203;SDS011;10261;49.010;12.034;2023-02-19T03:09:01;1.55;;;0.77;;
20203;SDS011;10261;49.010;12.034;2023-02-19T03:10:11;0.80;;;0.60;;
20203;SDS011;10261;49.010;12.034;2023-02-19T03:11:15;0.80;;;0.55;;
20203;SDS011;10261;49.010;12.034;2023-02-19T03:12:36;1.23;;;0.60;;
20203;SDS011;10261;49.010;12.034;2023-02-19T03:13:56;2.08;;;0.70;;
20203;SDS011;10261;49.010;12.034;2023-02-19T03:15:23;1.10;;;0.60;;
20203;SDS011;10261;49.010;12.034;2023-02-19T03:16:47;1.10;;;0.80;;
20203;SDS011;10261;49.010;12.034;2023-02-19T03:18:14;0.80;;;0.57;;
20203;SDS011;10261;49.010;12.034;2023-02-19T03:19:39;0.75;;;0.47;;
20203;SDS011;10261;49.010;12.034;2023-02-19T03:20:47;0.80;;;0.60;;
20203;SDS011;10261;49.010;12.034;2023-02-19T03:21:53;0.90;;;0.52;;
20203;SDS011;10261;49.010;12.034;2023-02-19T03:23:01;0.80;;;0.60;;
20203;SDS011;10261;49.010;12.034;2023-02-19T03:24:03;1.10;;;0.75;;
20203;SDS011;10261;49.010;12.034;2023-02-19T03:25:37;0.90;;;0.60;;
20203;SDS011;10261;49.010;12.034;2023-02-19T03:26:58;1.40;;;0.52;;
20203;SDS011;10261;49.010;12.034;2023-02-19T03:28:06;1.45;;;0.63;;
20203;SDS011;10261;49.010;12.034;2023-02-19T03:29:16;1.45;;;0.90;;
20203;SDS011;10261;49.010;12.034;2023-02-19T03:30:24;0.93;;;0.65;;
20203;SDS011;10261;49.010;12.034;2023-02-19T03:31:32;1.80;;;0.73;;
20203;SDS011;10261;49.010;12.034;2023-02-19T03:32:37;0.70;;;0.55;;
20203;SDS011;10261;49.010;12.034;2023-02-19T03:33:44;0.60;;;0.47;;
20203;SDS011;10261;49.010;12.034;2023-02-19T03:34:51;0.88;;;0.60;;
20203;SDS011;10261;49.010;12.034;2023-02-19T03:35:59;0.98;;;0.65;;
20203;SDS011;10261;49.010;12.034;2023-02-19T03:37:05;1.17;;;0.50;;
20203;SDS011;10261;49.010;12.034;2023-02-19T03:38:14;0.80;;;0.60;;
20203;SDS011;10261;49.010;12.034;2023-02-19T03:39:21;0.77;;;0.50;;
20203;SDS011;10261;49.010;12.034;2023-02-19T03:40:25;0.80;;;0.60;;
20203;SDS011;10261;49.010;12.034;2023-02-19T03:41:32;0.70;;;0.60;;
20203;SDS011;10261;49.010;12.034;2023-02-19T03:42:40;0.88;;;0.70;;
20203;SDS011;10261;49.010;12.034;2023-02-19T03:43:47;0.80;;;0.50;;
20203;SDS011;10261;49.010;12.034;2023-02-19T03:44:59;0.80;;;0.60;;
20203;SDS011;10261;49.010;12.034;2023-02-19T03:46:10;0.70;;;0.50;;
20203;SDS011;10261;49.010;12.034;2023-02-19T03:47:17;0.70;;;0.70;;
20203;SDS011;10261;49.010;12.034;2023-02-19T03:48:27;0.80;;;0.52;;
20203;SDS011;10261;49.010;12.034;2023-02-19T03:49:38;1.15;;;0.75;;
20203;SDS011;10261;49.010;12.034;2023-02-19T03:50:44;0.82;;;0.55;;
20203;SDS011;10261;49.010;12.034;2023-02-19T03:51:52;0.70;;;0.60;;
20203;SDS011;10261;49.010;12.034;2023-02-19T03:53:02;0.80;;;0.60;;
20203;SDS011;10261;49.010;12.034;2023-02-19T03:54:20;0.60;;;0.50;;
20203;SDS011;10261;49.010;12.034;2023-02-19T03:55:27;0.90;;;0.47;;
20203;SDS011;10261;49.010;12.034;2023-02-19T03:56:37;0.77;;;0.70;;
20203;SDS011;10261;49.010;12.034;2023-02-19T03:57:45;1.02;;;0.70;;
20203;SDS011;10261;49.010;12.034;2023-02-19T03:58:52;0.85;;;0.60;;
20203;SDS011;10261;49.010;12.034;2023-02-19T04:00:00;1.55;;;0.80;;
20203;SDS011;10261;49.010;12.034;2023-02-19T04:01:07;0.68;;;0.50;;
20203;SDS011;10261;49.010;12.034;2023-02-19T04:02:14;0.80;;;0.60;;
20203;SDS011;10261;49.010;12.034;2023-02-19T04:03:25;0.70;;;0.60;;
20203;SDS011;10261;49.010;12.034;2023-02-19T04:04:33;0.70;;;0.50;;
20203;SDS011;10261;49.010;12.034;2023-02-19T04:05:40;1.67;;;0.70;;
20203;SDS011;10261;49.010;12.034;2023-02-19T04:06:48;0.90;;;0.55;;
20203;SDS011;10261;49.010;12.034;2023-02-19T04:08:00;1.00;;;0.60;;
20203;SDS011;10261;49.010;12.034;2023-02-19T04:09:09;1.35;;;0.75;;
20203;SDS011;10261;49.010;12.034;2023-02-19T04:10:14;0.98;;;0.80;;
20203;SDS011;10261;49.010;12.034;2023-02-19T04:11:19;0.77;;;0.57;;
20203;SDS011;10261;49.010;12.034;2023-02-19T04:12:23;0.95;;;0.60;;
20203;SDS011;10261;49.010;12.034;2023-02-19T04:13:26;0.80;;;0.50;;
20203;SDS011;10261;49.010;12.034;2023-02-19T04:14:32;1.10;;;0.60;;
20203;SDS011;10261;49.010;12.034;2023-02-19T04:15:39;0.60;;;0.40;;
20203;SDS011;10261;49.010;12.034;2023-02-19T04:16:44;3.05;;;0.60;;
20203;SDS011;10261;49.010;12.034;2023-02-19T04:17:50;1.50;;;0.50;;
20203;SDS011;10261;49.010;12.034;2023-02-19T04:19:00;1.83;;;0.50;;
20203;SDS011;10261;49.010;12.034;2023-02-19T04:20:07;0.63;;;0.40;;
20203;SDS011;10261;49.010;12.034;2023-02-19T04:21:12;0.70;;;0.45;;
20203;SDS011;10261;49.010;12.034;2023-02-19T04:22:16;0.70;;;0.55;;
20203;SDS011;10261;49.010;12.034;2023-02-19T04:23:21;0.60;;;0.40;;
20203;SDS011;10261;49.010;12.034;2023-02-19T04:24:27;0.50;;;0.30;;
20203;SDS011;10261;49.010;12.034;2023-02-19T04:25:33;0.50;;;0.40;;
20203;SDS011;10261;49.010;12.034;2023-02-19T04:26:38;0.50;;;0.40;;
20203;SDS011;10261;49.010;12.034;2023-02-19T04:27:43;2.08;;;0.40;;
20203;SDS011;10261;49.010;12.034;2023-02-19T04:28:45;0.68;;;0.40;;
20203;SDS011;10261;49.010;12.034;2023-02-19T04:29:48;0.60;;;0.40;;
20203;SDS011;10261;49.010;12.034;2023-02-19T04:30:50;0.93;;;0.40;;
20203;SDS011;10261;49.010;12.034;2023-02-19T04:31:53;0.70;;;0.40;;
20203;SDS011;10261;49.010;12.034;2023-02-19T04:32:57;0.60;;;0.40;;
20203;SDS011;10261;49.010;12.034;2023-02-19T04:34:02;0.60;;;0.43;;
20203;SDS011;10261;49.010;12.034;2023-02-19T04:35:04;0.50;;;0.40;;
20203;SDS011;10261;49.010;12.034;2023-02-19T04:36:08;0.50;;;0.40;;
20203;SDS011;10261;49.010;12.034;2023-02-19T04:37:11;0.50;;;0.40;;
20203;SDS011;10261;49.010;12.034;2023-02-19T04:38:14;0.55;;;0.40;;
20203;SDS011;10261;49.010;12.034;2023-02-19T04:39:16;0.60;;;0.38;;
20203;SDS011;10261;49.010;12.034;2023-02-19T04:40:19;0.60;;;0.40;;
20203;SDS011;10261;49.010;12.034;2023-02-19T04:41:21;0.70;;;0.40;;
20203;SDS011;10261;49.010;12.034;2023-02-19T04:42:24;1.13;;;0.40;;
20203;SDS011;10261;49.010;12.034;2023-02-19T04:43:29;0.60;;;0.30;;
20203;SDS011;10261;49.010;12.034;2023-02-19T04:44:32;0.60;;;0.40;;
20203;SDS011;10261;49.010;12.034;2023-02-19T04:45:35;0.47;;;0.30;;
20203;SDS011;10261;49.010;12.034;2023-02-19T04:46:39;0.60;;;0.40;;
20203;SDS011;10261;49.010;12.034;2023-02-19T04:47:43;0.50;;;0.30;;
20203;SDS011;10261;49.010;12.034;2023-02-19T04:48:46;0.50;;;0.30;;
20203;SDS011;10261;49.010;12.034;2023-02-19T04:49:49;1.58;;;0.40;;
20203;SDS011;10261;49.010;12.034;2023-02-19T04:50:52;4.40;;;0.40;;
20203;SDS011;10261;49.010;12.034;2023-02-19T04:51:54;0.50;;;0.35;;
20203;SDS011;10261;49.010;12.034;2023-02-19T04:52:57;0.60;;;0.40;;
20203;SDS011;10261;49.010;12.034;2023-02-19T04:53:59;0.75;;;0.30;;
20203;SDS011;10261;49.010;12.034;2023-02-19T04:55:02;0.60;;;0.30;;
20203;SDS011;10261;49.010;12.034;2023-02-19T04:56:05;0.52;;;0.40;;
20203;SDS011;10261;49.010;12.034;2023-02-19T04:57:09;0.60;;;0.30;;
20203;SDS011;10261;49.010;12.034;2023-02-19T04:58:11;0.75;;;0.40;;
20203;SDS011;10261;49.010;12.034;2023-02-19T04:59:14;0.40;;;0.30;;
20203;SDS011;10261;49.010;12.034;2023-02-19T05:00:16;0.52;;;0.40;;
20203;SDS011;10261;49.010;12.034;2023-02-19T05:01:19;0.63;;;0.40;;
20203;SDS011;10261;49.010;12.034;2023-02-19T05:02:21;0.70;;;0.40;;
20203;SDS011;10261;49.010;12.034;2023-02-19T05:03:24;0.60;;;0.40;;
20203;SDS011;10261;49.010;12.034;2023-02-19T05:04:26;0.50;;;0.40;;
20203;SDS011;10261;49.010;12.034;2023-02-19T05:05:30;0.80;;;0.35;;
20203;SDS011;10261;49.010;12.034;2023-02-19T05:06:32;0.70;;;0.30;;
20203;SDS011;10261;49.010;12.034;2023-02-19T05:07:35;0.40;;;0.30;;
20203;SDS011;10261;49.010;12.034;2023-02-19T05:08:37;1.60;;;0.30;;
20203;SDS011;10261;49.010;12.034;2023-02-19T05:09:40;0.60;;;0.30;;
20203;SDS011;10261;49.010;12.034;2023-02-19T05:10:42;0.55;;;0.40;;
20203;SDS011;10261;49.010;12.034;2023-02-19T05:11:45;0.60;;;0.40;;
20203;SDS011;10261;49.010;12.034;2023-02-19T05:12:47;0.60;;;0.40;;
20203;SDS011;10261;49.010;12.034;2023-02-19T05:13:50;1.08;;;0.40;;
20203;SDS011;10261;49.010;12.034;2023-02-19T05:14:52;0.50;;;0.30;;
20203;SDS011;10261;49.010;12.034;2023-02-19T05:15:56;0.60;;;0.32;;
20203;SDS011;10261;49.010;12.034;2023-02-19T05:16:59;0.50;;;0.30;;
20203;SDS011;10261;49.010;12.034;2023-02-19T05:18:02;1.38;;;0.40;;
20203;SDS011;10261;49.010;12.034;2023-02-19T05:19:05;0.40;;;0.30;;
20203;SDS011;10261;49.010;12.034;2023-02-19T05:20:08;0.50;;;0.30;;
20203;SDS011;10261;49.010;12.034;2023-02-19T05:21:11;0.50;;;0.30;;
20203;SDS011;10261;49.010;12.034;2023-02-19T05:22:15;0.50;;;0.30;;
20203;SDS011;10261;49.010;12.034;2023-02-19T05:23:19;0.50;;;0.30;;
20203;SDS011;10261;49.010;12.034;2023-02-19T05:24:22;0.50;;;0.30;;
20203;SDS011;10261;49.010;12.034;2023-02-19T05:25:24;0.50;;;0.30;;
20203;SDS011;10261;49.010;12.034;2023-02-19T05:26:27;0.50;;;0.30;;
20203;SDS011;10261;49.010;12.034;2023-02-19T05:27:31;0.50;;;0.40;;
20203;SDS011;10261;49.010;12.034;2023-02-19T05:28:34;0.68;;;0.30;;
20203;SDS011;10261;49.010;12.034;2023-02-19T05:29:36;0.50;;;0.30;;
20203;SDS011;10261;49.010;12.034;2023-02-19T05:30:39;0.50;;;0.35;;
20203;SDS011;10261;49.010;12.034;2023-02-19T05:31:41;0.50;;;0.40;;
20203;SDS011;10261;49.010;12.034;2023-02-19T05:32:44;0.60;;;0.40;;
20203;SDS011;10261;49.010;12.034;2023-02-19T05:33:46;0.50;;;0.30;;
20203;SDS011;10261;49.010;12.034;2023-02-19T05:34:51;0.50;;;0.30;;
20203;SDS011;10261;49.010;12.034;2023-02-19T05:35:53;0.55;;;0.32;;
20203;SDS011;10261;49.010;12.034;2023-02-19T05:36:58;0.50;;;0.30;;
20203;SDS011;10261;49.010;12.034;2023-02-19T05:38:00;0.50;;;0.30;;
20203;SDS011;10261;49.010;12.034;2023-02-19T05:39:03;0.80;;;0.55;;
20203;SDS011;10261;49.010;12.034;2023-02-19T05:40:07;3.60;;;0.40;;
20203;SDS011;10261;49.010;12.034;2023-02-19T05:41:11;0.40;;;0.30;;
20203;SDS011;10261;49.010;12.034;2023-02-19T05:42:14;0.60;;;0.30;;
20203;SDS011;10261;49.010;12.034;2023-02-19T05:43:17;0.50;;;0.32;;
20203;SDS011;10261;49.010;12.034;2023-02-19T05:44:19;1.58;;;0.30;;
20203;SDS011;10261;49.010;12.034;2023-02-19T05:45:22;1.25;;;0.30;;
20203;SDS011;10261;49.010;12.034;2023-02-19T05:46:24;0.50;;;0.30;;
20203;SDS011;10261;49.010;12.034;2023-02-19T05:47:29;0.52;;;0.30;;
20203;SDS011;10261;49.010;12.034;2023-02-19T05:48:31;0.50;;;0.30;;
20203;SDS011;10261;49.010;12.034;2023-02-19T05:49:34;0.50;;;0.40;;
20203;SDS011;10261;49.010;12.034;2023-02-19T05:50:36;0.70;;;0.30;;
20203;SDS011;10261;49.010;12.034;2023-02-19T05:51:40;0.50;;;0.30;;
20203;SDS011;10261;49.010;12.034;2023-02-19T05:52:43;0.50;;;0.30;;
20203;SDS011;10261;49.010;12.034;2023-02-19T05:53:46;0.47;;;0.30;;
20203;SDS011;10261;49.010;12.034;2023-02-19T05:54:49;0.50;;;0.30;;
20203;SDS011;10261;49.010;12.034;2023-02-19T05:55:52;0.50;;;0.30;;
20203;SDS011;10261;49.010;12.034;2023-02-19T05:56:54;0.55;;;0.30;;
20203;SDS011;10261;49.010;12.034;2023-02-19T05:57:57;0.57;;;0.30;;
20203;SDS011;10261;49.010;12.034;2023-02-19T05:58:59;0.60;;;0.40;;
20203;SDS011;10261;49.010;12.034;2023-02-19T06:00:05;0.50;;;0.30;;
20203;SDS011;10261;49.010;12.034;2023-02-19T06:01:13;0.73;;;0.40;;
20203;SDS011;10261;49.010;12.034;2023-02-19T06:02:17;0.40;;;0.28;;
20203;SDS011;10261;49.010;12.034;2023-02-19T06:03:19;0.60;;;0.40;;
20203;SDS011;10261;49.010;12.034;2023-02-19T06:04:22;0.50;;;0.30;;
20203;SDS011;10261;49.010;12.034;2023-02-19T06:05:24;1.13;;;0.30;;
20203;SDS011;10261;49.010;12.034;2023-02-19T06:06:27;0.70;;;0.40;;
20203;SDS011;10261;49.010;12.034;2023-02-19T06:07:29;0.63;;;0.38;;
20203;SDS011;10261;49.010;12.034;2023-02-19T06:08:34;0.50;;;0.30;;
20203;SDS011;10261;49.010;12.034;2023-02-19T06:09:38;0.50;;;0.30;;
20203;SDS011;10261;49.010;12.034;2023-02-19T06:10:41;0.40;;;0.30;;
20203;SDS011;10261;49.010;12.034;2023-02-19T06:11:43;0.80;;;0.50;;
20203;SDS011;10261;49.010;12.034;2023-02-19T06:12:46;0.60;;;0.50;;
20203;SDS011;10261;49.010;12.034;2023-02-19T06:13:48;0.60;;;0.45;;
20203;SDS011;10261;49.010;12.034;2023-02-19T06:14:51;0.80;;;0.50;;
20203;SDS011;10261;49.010;12.034;2023-02-19T06:15:53;0.60;;;0.50;;
20203;SDS011;10261;49.010;12.034;2023-02-19T06:16:56;0.60;;;0.40;;
20203;SDS011;10261;49.010;12.034;2023-02-19T06:17:59;0.63;;;0.40;;
20203;SDS011;10261;49.010;12.034;2023-02-19T06:19:02;1.23;;;0.50;;
20203;SDS011;10261;49.010;12.034;2023-02-19T06:20:05;1.10;;;0.55;;
20203;SDS011;10261;49.010;12.034;2023-02-19T06:21:08;0.73;;;0.50;;
20203;SDS011;10261;49.010;12.034;2023-02-19T06:22:13;1.17;;;0.57;;
20203;SDS011;10261;49.010;12.034;2023-02-19T06:23:15;0.80;;;0.70;;
20203;SDS011;10261;49.010;12.034;2023-02-19T06:24:20;0.90;;;0.70;;
20203;SDS011;10261;49.010;12.034;2023-02-19T06:25:22;0.82;;;0.60;;
20203;SDS011;10261;49.010;12.034;2023-02-19T06:26:25;0.80;;;0.60;;
20203;SDS011;10261;49.010;12.034;2023-02-19T06:27:27;0.80;;;0.57;;
20203;SDS011;10261;49.010;12.034;2023-02-19T06:28:30;0.82;;;0.60;;
20203;SDS011;10261;49.010;12.034;2023-02-19T06:29:32;0.90;;;0.70;;
20203;SDS011;10261;49.010;12.034;2023-02-19T06:30:38;0.90;;;0.70;;